createdAt,value
2019-02-05T00:01:41.724Z,2.98
2019-02-05T00:04:12.199Z,2.99
2019-02-05T00:06:42.631Z,3.03
2019-02-05T00:09:14.074Z,3.04
2019-02-05T00:11:44.529Z,3.04
2019-02-05T00:14:15.352Z,3.04
2019-02-05T00:16:46.496Z,3.07
2019-02-05T00:19:16.931Z,3.09
2019-02-05T00:21:47.385Z,3.09
2019-02-05T00:24:18.197Z,3.10
2019-02-05T00:26:48.933Z,3.05
2019-02-05T00:29:20.158Z,3.01
2019-02-05T00:31:50.761Z,3.08
2019-02-05T00:34:21.194Z,3.09
2019-02-05T00:36:51.647Z,3.04
2019-02-05T00:39:22.077Z,3.13
2019-02-05T00:41:52.593Z,3.15
2019-02-05T00:44:23.031Z,3.08
2019-02-05T00:46:53.461Z,3.13
2019-02-05T00:49:23.933Z,3.10
2019-02-05T00:51:55.260Z,3.13
2019-02-05T00:54:25.737Z,3.16
2019-02-05T00:56:56.348Z,3.14
2019-02-05T00:59:27.078Z,3.13
2019-02-05T01:01:57.530Z,3.14
2019-02-05T01:04:27.962Z,3.18
2019-02-05T01:06:58.534Z,3.12
2019-02-05T01:09:29.474Z,3.13
2019-02-05T01:11:59.905Z,3.02
2019-02-05T01:14:30.360Z,3.10
2019-02-05T01:17:00.793Z,3.16
2019-02-05T01:19:31.280Z,3.24
2019-02-05T01:22:02.690Z,3.14
2019-02-05T01:24:33.128Z,3.22
2019-02-05T01:27:03.853Z,3.10
2019-02-05T01:29:34.551Z,3.09
2019-02-05T01:32:05.005Z,3.06
2019-02-05T01:34:35.456Z,3.15
2019-02-05T01:37:05.941Z,3.11
2019-02-05T01:39:36.366Z,3.11
2019-02-05T01:42:06.792Z,3.13
2019-02-05T01:44:37.263Z,3.11
2019-02-05T01:47:07.697Z,3.14
2019-02-05T01:49:38.560Z,3.21
2019-02-05T01:52:09.872Z,3.11
2019-02-05T01:54:40.950Z,3.20
2019-02-05T01:57:12.080Z,3.21
2019-02-05T01:59:42.516Z,3.18
2019-02-05T02:02:13.918Z,3.19
2019-02-05T02:04:44.385Z,3.21
2019-02-05T02:07:14.862Z,3.14
2019-02-05T02:09:45.293Z,3.20
2019-02-05T02:12:16.193Z,3.25
2019-02-05T02:14:46.694Z,3.27
2019-02-05T02:17:17.127Z,3.26
2019-02-05T02:19:47.609Z,3.29
2019-02-05T02:22:18.429Z,3.24
2019-02-05T02:24:49.162Z,3.24
2019-02-05T02:27:20.099Z,3.27
2019-02-05T02:29:51.000Z,3.23
2019-02-05T02:32:21.473Z,3.27
2019-02-05T02:34:51.907Z,3.24
2019-02-05T02:37:22.639Z,3.25
2019-02-05T02:39:53.105Z,3.19
2019-02-05T02:42:23.540Z,3.08
2019-02-05T02:44:54.027Z,3.08
2019-02-05T02:47:27.707Z,3.03
2019-02-05T02:49:56.904Z,2.96
2019-02-05T02:52:27.370Z,2.98
2019-02-05T02:54:57.803Z,2.98
2019-02-05T02:57:28.457Z,2.99
2019-02-05T02:59:58.897Z,2.96
2019-02-05T03:02:29.332Z,3.03
2019-02-05T03:04:59.968Z,2.97
2019-02-05T03:07:30.410Z,2.97
2019-02-05T03:10:01.295Z,3.01
2019-02-05T03:12:32.711Z,2.97
2019-02-05T03:15:03.168Z,2.96
2019-02-05T03:17:34.642Z,2.99
2019-02-05T03:20:06.051Z,2.96
2019-02-05T03:22:36.573Z,2.89
2019-02-05T03:25:08.473Z,2.88
2019-02-05T03:27:38.912Z,2.90
2019-02-05T03:30:12.734Z,2.87
2019-02-05T03:32:43.172Z,2.89
2019-02-05T03:35:13.990Z,2.82
2019-02-05T03:37:44.624Z,2.77
2019-02-05T03:40:53.168Z,2.70
2019-02-05T03:43:24.458Z,2.69
2019-02-05T03:45:56.475Z,2.64
2019-02-05T03:48:28.189Z,2.63
2019-02-05T03:51:24.049Z,2.66
2019-02-05T03:54:05.691Z,2.69
2019-02-05T03:57:00.448Z,2.61
2019-02-05T04:00:06.695Z,2.59
2019-02-05T04:03:06.933Z,2.57
2019-02-05T04:06:20.976Z,2.63
2019-02-05T04:09:12.361Z,2.62
2019-02-05T04:12:21.527Z,2.69
2019-02-05T04:15:21.622Z,2.68
2019-02-05T04:18:41.846Z,2.65
2019-02-05T04:21:31.908Z,2.65
2019-02-05T04:24:28.374Z,2.66
2019-02-05T04:27:24.103Z,2.65
2019-02-05T04:30:50.737Z,2.68
2019-02-05T04:33:43.348Z,2.60
2019-02-05T04:36:53.988Z,2.63
2019-02-05T04:40:14.717Z,2.62
2019-02-05T04:43:14.695Z,2.61
2019-02-05T04:46:35.806Z,2.60
2019-02-05T04:49:39.433Z,2.61
2019-02-05T04:52:55.061Z,2.61
2019-02-05T04:55:59.960Z,2.62
2019-02-05T04:58:56.029Z,2.61
2019-02-05T05:01:52.716Z,2.63
2019-02-05T05:05:01.201Z,2.65
2019-02-05T05:08:11.153Z,2.59
2019-02-05T05:10:41.585Z,2.68
2019-02-05T05:13:12.053Z,2.56
2019-02-05T05:15:42.866Z,2.53
2019-02-05T05:18:15.556Z,2.57
2019-02-05T05:20:46.268Z,2.47
2019-02-05T05:23:16.838Z,2.55
2019-02-05T05:25:47.694Z,2.48
2019-02-05T05:28:18.231Z,2.47
2019-02-05T05:30:49.084Z,2.53
2019-02-05T05:33:19.521Z,2.41
2019-02-05T05:35:50.013Z,2.36
2019-02-05T05:38:21.173Z,2.41
2019-02-05T05:40:51.604Z,2.45
2019-02-05T05:43:22.553Z,2.47
2019-02-05T05:45:53.436Z,2.48
2019-02-05T05:48:24.501Z,2.40
2019-02-05T05:50:54.938Z,2.52
2019-02-05T05:53:25.430Z,2.52
2019-02-05T05:55:55.907Z,2.50
2019-02-05T05:58:26.349Z,2.48
2019-02-05T06:00:57.536Z,2.49
2019-02-05T06:03:28.303Z,2.44
2019-02-05T06:05:59.115Z,2.41
2019-02-05T06:08:29.588Z,2.44
2019-02-05T06:11:00.286Z,2.45
2019-02-05T06:13:31.160Z,2.49
2019-02-05T06:16:01.952Z,2.53
2019-02-05T06:18:33.038Z,2.53
2019-02-05T06:21:04.389Z,2.47
2019-02-05T06:23:34.855Z,2.42
2019-02-05T06:26:05.403Z,2.56
2019-02-05T06:28:35.910Z,2.49
2019-02-05T06:31:06.369Z,2.49
2019-02-05T06:33:37.238Z,2.44
2019-02-05T06:36:07.710Z,2.40
2019-02-05T06:38:38.614Z,2.41
2019-02-05T06:41:09.235Z,2.48
2019-02-05T06:43:40.386Z,2.54
2019-02-05T06:46:10.835Z,2.62
2019-02-05T06:48:41.325Z,2.60
2019-02-05T06:51:11.773Z,2.62
2019-02-05T06:53:42.791Z,2.62
2019-02-05T06:56:13.278Z,2.65
2019-02-05T06:58:46.374Z,2.59
2019-02-05T07:01:16.075Z,2.61
2019-02-05T07:03:46.535Z,2.56
2019-02-05T07:06:17.027Z,2.59
2019-02-05T07:08:47.842Z,2.59
2019-02-05T07:11:18.907Z,2.57
2019-02-05T07:13:49.723Z,2.59
2019-02-05T07:16:20.176Z,2.58
2019-02-05T07:18:50.621Z,2.56
2019-02-05T07:21:21.096Z,2.63
2019-02-05T07:23:51.583Z,2.66
2019-02-05T07:26:22.795Z,2.65
2019-02-05T07:28:58.438Z,2.53
2019-02-05T07:31:25.909Z,2.63
2019-02-05T07:33:56.359Z,2.64
2019-02-05T07:36:26.839Z,2.65
2019-02-05T07:38:58.014Z,2.65
2019-02-05T07:41:28.895Z,2.66
2019-02-05T07:43:59.344Z,2.63
2019-02-05T07:46:29.790Z,2.70
2019-02-05T07:49:00.288Z,2.72
2019-02-05T07:51:30.735Z,2.76
2019-02-05T07:54:01.180Z,2.75
2019-02-05T07:56:31.669Z,2.80
2019-02-05T07:59:09.846Z,2.71
2019-02-05T08:01:34.778Z,2.74
2019-02-05T08:04:05.534Z,2.77
2019-02-05T08:06:36.426Z,2.72
2019-02-05T08:09:10.124Z,2.76
2019-02-05T08:11:41.492Z,2.76
2019-02-05T08:14:12.219Z,2.76
2019-02-05T08:16:43.046Z,2.71
2019-02-05T08:19:13.496Z,2.71
2019-02-05T08:21:43.976Z,2.66
2019-02-05T08:24:14.426Z,2.69
2019-02-05T08:26:44.966Z,2.76
2019-02-05T08:29:21.715Z,2.82
2019-02-05T08:31:47.738Z,2.76
2019-02-05T08:34:18.229Z,2.86
2019-02-05T08:36:48.668Z,2.82
2019-02-05T08:39:19.166Z,2.86
2019-02-05T08:41:49.695Z,2.83
2019-02-05T08:44:20.167Z,2.90
2019-02-05T08:46:50.646Z,2.88
2019-02-05T08:49:22.326Z,2.89
2019-02-05T08:51:52.834Z,2.90
2019-02-05T08:54:23.292Z,2.92
2019-02-05T08:56:53.899Z,2.90
2019-02-05T08:59:25.070Z,2.93
2019-02-05T09:01:56.223Z,2.94
2019-02-05T09:04:26.719Z,2.91
2019-02-05T09:06:57.898Z,2.97
2019-02-05T09:09:28.346Z,3.01
2019-02-05T09:11:58.826Z,2.98
2019-02-05T09:14:29.590Z,3.05
2019-02-05T09:17:00.430Z,3.03
2019-02-05T09:19:31.270Z,3.06
2019-02-05T09:22:01.908Z,3.11
2019-02-05T09:24:32.390Z,3.10
2019-02-05T09:27:03.763Z,3.09
2019-02-05T09:29:34.530Z,3.12
2019-02-05T09:32:05.520Z,3.10
2019-02-05T09:34:35.970Z,3.06
2019-02-05T09:37:06.462Z,3.00
2019-02-05T09:39:37.086Z,2.98
2019-02-05T09:42:07.854Z,3.05
2019-02-05T09:44:38.307Z,2.98
2019-02-05T09:47:08.753Z,2.98
2019-02-05T09:49:39.598Z,3.06
2019-02-05T09:52:10.148Z,3.11
2019-02-05T09:54:40.644Z,3.11
2019-02-05T09:57:11.366Z,3.13
2019-02-05T09:59:45.488Z,3.08
2019-02-05T10:02:14.618Z,3.03
2019-02-05T10:04:45.059Z,3.11
2019-02-05T10:07:15.575Z,3.11
2019-02-05T10:09:46.029Z,3.07
2019-02-05T10:12:16.894Z,3.09
2019-02-05T10:14:47.674Z,3.12
2019-02-05T10:17:18.129Z,3.18
2019-02-05T10:19:48.609Z,3.14
2019-02-05T10:22:19.069Z,3.20
2019-02-05T10:24:50.105Z,3.19
2019-02-05T10:27:21.267Z,3.23
2019-02-05T10:29:57.889Z,3.26
2019-02-05T10:32:23.927Z,3.21
2019-02-05T10:34:54.426Z,3.27
2019-02-05T10:37:24.951Z,3.23
2019-02-05T10:39:56.352Z,3.25
2019-02-05T10:42:27.654Z,3.23
2019-02-05T10:44:58.153Z,3.27
2019-02-05T10:47:28.619Z,3.29
2019-02-05T10:49:59.227Z,3.33
2019-02-05T10:52:30.012Z,3.29
2019-02-05T10:55:01.069Z,3.36
2019-02-05T10:57:31.614Z,3.31
2019-02-05T11:00:09.126Z,3.24
2019-02-05T11:02:34.278Z,3.40
2019-02-05T11:05:05.846Z,3.41
2019-02-05T11:07:36.639Z,3.50
2019-02-05T11:10:08.911Z,3.37
2019-02-05T11:12:39.412Z,3.36
2019-02-05T11:15:12.708Z,3.41
2019-02-05T11:17:43.225Z,3.39
2019-02-05T11:20:16.339Z,3.40
2019-02-05T11:22:47.818Z,3.38
2019-02-05T11:25:18.633Z,3.33
2019-02-05T11:27:49.712Z,3.35
2019-02-05T11:30:26.370Z,3.47
2019-02-05T11:32:57.108Z,3.51
2019-02-05T11:35:27.882Z,3.50
2019-02-05T11:37:58.355Z,3.48
2019-02-05T11:40:31.975Z,3.52
2019-02-05T11:43:02.644Z,3.50
2019-02-05T11:45:33.577Z,3.35
2019-02-05T11:48:05.171Z,3.35
2019-02-05T11:50:36.027Z,3.42
2019-02-05T11:53:06.623Z,3.40
2019-02-05T11:55:37.259Z,3.37
2019-02-05T11:58:07.997Z,3.34
2019-02-05T12:00:56.483Z,3.29
2019-02-05T12:03:27.011Z,3.30
2019-02-05T12:05:57.503Z,3.46
2019-02-05T12:08:28.002Z,3.41
2019-02-05T12:10:58.466Z,3.46
2019-02-05T12:13:29.072Z,3.49
2019-02-05T12:15:59.566Z,3.55
2019-02-05T12:18:30.444Z,3.58
2019-02-05T12:21:00.982Z,3.54
2019-02-05T12:23:32.818Z,3.59
2019-02-05T12:26:03.340Z,3.60
2019-02-05T12:28:34.618Z,3.62
2019-02-05T12:31:05.487Z,3.66
2019-02-05T12:33:36.273Z,3.65
2019-02-05T12:36:07.244Z,3.63
2019-02-05T12:38:38.472Z,3.64
2019-02-05T12:41:08.918Z,3.68
2019-02-05T12:43:39.375Z,3.68
2019-02-05T12:46:10.779Z,3.65
2019-02-05T12:48:41.455Z,3.72
2019-02-05T12:51:12.131Z,3.70
2019-02-05T12:53:43.039Z,3.72
2019-02-05T12:56:13.575Z,3.69
2019-02-05T12:58:44.487Z,3.72
2019-02-05T13:01:14.943Z,3.67
2019-02-05T13:03:45.491Z,3.65
2019-02-05T13:06:15.938Z,3.70
2019-02-05T13:08:46.431Z,3.75
2019-02-05T13:11:16.920Z,3.76
2019-02-05T13:13:47.599Z,3.69
2019-02-05T13:16:18.395Z,3.70
2019-02-05T13:18:51.817Z,3.68
2019-02-05T13:21:21.398Z,3.66
2019-02-05T13:23:51.979Z,3.74
2019-02-05T13:26:22.450Z,3.72
2019-02-05T13:28:53.418Z,3.71
2019-02-05T13:31:24.316Z,3.65
2019-02-05T13:33:54.784Z,3.66
2019-02-05T13:36:25.282Z,3.71
2019-02-05T13:38:55.742Z,3.73
2019-02-05T13:41:29.018Z,3.69
2019-02-05T13:43:59.184Z,3.66
2019-02-05T13:46:29.638Z,3.71
2019-02-05T13:49:00.122Z,3.71
2019-02-05T13:51:30.688Z,3.67
2019-02-05T13:54:01.267Z,3.66
2019-02-05T13:56:31.722Z,3.71
2019-02-05T13:59:02.179Z,3.73
2019-02-05T14:01:32.992Z,3.73
2019-02-05T14:04:03.538Z,3.74
2019-02-05T14:06:34.977Z,3.69
2019-02-05T14:09:11.036Z,3.66
2019-02-05T14:11:41.906Z,3.65
2019-02-05T14:14:12.664Z,3.61
2019-02-05T14:16:43.442Z,3.62
2019-02-05T14:19:14.444Z,3.63
2019-02-05T14:21:46.293Z,3.64
2019-02-05T14:24:16.784Z,3.61
2019-02-05T14:26:47.624Z,3.59
2019-02-05T14:29:18.510Z,3.58
2019-02-05T14:31:49.301Z,3.60
2019-02-05T14:34:19.808Z,3.59
2019-02-05T14:36:50.290Z,3.58
2019-02-05T14:39:20.842Z,3.63
2019-02-05T14:41:52.100Z,3.60
2019-02-05T14:44:22.575Z,3.60
2019-02-05T14:46:53.468Z,3.64
2019-02-05T14:49:23.913Z,3.64
2019-02-05T14:51:54.363Z,3.62
2019-02-05T14:54:25.231Z,3.63
2019-02-05T14:56:55.680Z,3.59
2019-02-05T14:59:26.562Z,3.56
2019-02-05T15:01:57.020Z,3.58
2019-02-05T15:04:27.863Z,3.57
2019-02-05T15:06:58.326Z,3.56
2019-02-05T15:09:28.854Z,3.56
2019-02-05T15:11:59.651Z,3.55
2019-02-05T15:14:30.094Z,3.53
2019-02-05T15:17:00.565Z,3.57
2019-02-05T15:19:31.412Z,3.55
2019-02-05T15:22:01.874Z,3.53
2019-02-05T15:24:37.953Z,3.54
2019-02-05T15:27:04.616Z,3.60
2019-02-05T15:29:35.115Z,3.57
2019-02-05T15:32:05.954Z,3.58
2019-02-05T15:34:36.407Z,3.56
2019-02-05T15:37:07.870Z,3.55
2019-02-05T15:39:38.711Z,3.55
2019-02-05T15:42:09.201Z,3.56
2019-02-05T15:44:39.647Z,3.56
2019-02-05T15:47:10.151Z,3.53
2019-02-05T15:49:41.007Z,3.49
2019-02-05T15:52:11.630Z,3.45
2019-02-05T15:54:42.113Z,3.46
2019-02-05T15:57:12.567Z,3.45
2019-02-05T15:59:43.068Z,3.45
2019-02-05T16:02:13.618Z,3.41
2019-02-05T16:04:44.069Z,3.42
2019-02-05T16:07:15.324Z,3.43
2019-02-05T16:09:45.783Z,3.52
2019-02-05T16:12:16.429Z,3.45
2019-02-05T16:14:46.879Z,3.45
2019-02-05T16:17:17.335Z,3.43
2019-02-05T16:19:47.810Z,3.42
2019-02-05T16:22:19.059Z,3.47
2019-02-05T16:24:49.538Z,3.37
2019-02-05T16:27:20.011Z,3.36
2019-02-05T16:29:50.851Z,3.33
2019-02-05T16:32:21.998Z,3.37
2019-02-05T16:34:53.143Z,3.35
2019-02-05T16:37:23.628Z,3.37
2019-02-05T16:39:54.078Z,3.34
2019-02-05T16:42:24.891Z,3.27
2019-02-05T16:44:55.339Z,3.27
2019-02-05T16:47:25.816Z,3.23
2019-02-05T16:49:56.303Z,3.24
2019-02-05T16:52:26.812Z,3.29
2019-02-05T16:54:57.268Z,3.33
2019-02-05T16:57:28.310Z,3.29
2019-02-05T16:59:58.783Z,3.35
2019-02-05T17:02:29.649Z,3.32
2019-02-05T17:05:00.264Z,3.32
2019-02-05T17:07:30.766Z,3.31
2019-02-05T17:10:01.251Z,3.30
2019-02-05T17:12:31.725Z,3.25
2019-02-05T17:15:03.044Z,3.27
2019-02-05T17:17:33.601Z,3.20
2019-02-05T17:20:05.951Z,3.24
2019-02-05T17:22:36.857Z,3.29
2019-02-05T17:25:07.924Z,3.32
2019-02-05T17:27:38.732Z,3.26
2019-02-05T17:30:12.756Z,3.31
2019-02-05T17:32:43.361Z,3.33
2019-02-05T17:35:14.085Z,3.27
2019-02-05T17:37:44.747Z,3.27
2019-02-05T17:40:17.339Z,3.26
2019-02-05T17:42:48.494Z,3.24
2019-02-05T17:45:21.695Z,3.17
2019-02-05T17:47:52.173Z,3.12
2019-02-05T17:50:23.221Z,3.04
2019-02-05T17:52:53.672Z,3.08
2019-02-05T17:55:24.603Z,3.00
2019-02-05T17:57:55.058Z,2.97
2019-02-05T18:00:30.165Z,2.95
2019-02-05T18:03:01.061Z,3.05
2019-02-05T18:05:34.815Z,3.10
2019-02-05T18:08:04.014Z,3.03
2019-02-05T18:10:34.475Z,3.07
2019-02-05T18:13:05.284Z,3.00
2019-02-05T18:15:36.102Z,3.00
2019-02-05T18:18:06.944Z,2.95
2019-02-05T18:20:37.792Z,2.99
2019-02-05T18:23:08.899Z,3.01
2019-02-05T18:25:39.418Z,2.99
2019-02-05T18:28:10.713Z,2.98
2019-02-05T18:30:41.578Z,3.06
2019-02-05T18:33:12.407Z,3.16
2019-02-05T18:35:44.712Z,3.25
2019-02-05T18:38:16.153Z,3.14
2019-02-05T18:40:47.075Z,3.11
2019-02-05T18:43:17.580Z,3.08
2019-02-05T18:45:48.059Z,3.11
2019-02-05T18:48:18.877Z,3.08
2019-02-05T18:50:49.630Z,3.08
2019-02-05T18:53:21.165Z,3.08
2019-02-05T18:55:53.773Z,3.06
2019-02-05T18:58:27.927Z,3.10
2019-02-05T19:00:59.107Z,3.04
2019-02-05T19:03:30.151Z,3.09
2019-02-05T19:06:01.011Z,3.10
2019-02-05T19:08:31.771Z,3.12
2019-02-05T19:11:02.232Z,3.19
2019-02-05T19:13:32.904Z,3.17
2019-02-05T19:16:07.082Z,3.09
2019-02-05T19:18:38.769Z,3.04
2019-02-05T19:21:12.198Z,3.01
2019-02-05T19:23:43.132Z,3.00
2019-02-05T19:26:19.995Z,3.02
2019-02-05T19:28:50.822Z,3.08
2019-02-05T19:31:38.867Z,3.11
2019-02-05T19:34:11.445Z,3.11
2019-02-05T19:36:41.940Z,3.10
2019-02-05T19:39:14.526Z,3.07
2019-02-05T19:41:45.312Z,3.04
2019-02-05T19:44:16.183Z,3.03
2019-02-05T19:47:15.208Z,3.06
2019-02-05T19:49:50.951Z,3.08
2019-02-05T19:52:27.712Z,3.06
2019-02-05T19:54:58.054Z,3.06
2019-02-05T19:57:29.750Z,3.05
2019-02-05T20:00:01.167Z,3.04
2019-02-05T20:02:32.249Z,3.04
2019-02-05T20:05:02.702Z,3.09
2019-02-05T20:07:36.317Z,3.08
2019-02-05T20:10:09.260Z,3.08
2019-02-05T20:12:40.130Z,3.08
2019-02-05T20:15:10.603Z,3.11
2019-02-05T20:17:41.925Z,3.12
2019-02-05T20:20:14.101Z,3.08
2019-02-05T20:22:44.906Z,3.09
2019-02-05T20:25:15.483Z,3.07
2019-02-05T20:27:46.730Z,3.05
2019-02-05T20:30:18.012Z,3.04
2019-02-05T20:32:48.543Z,3.03
2019-02-05T20:35:19.368Z,3.04
2019-02-05T20:37:50.327Z,3.01
2019-02-05T20:40:20.868Z,3.00
2019-02-05T20:42:51.734Z,2.99
2019-02-05T20:45:22.278Z,3.00
2019-02-05T20:47:55.796Z,3.01
2019-02-05T20:50:25.489Z,3.07
2019-02-05T20:52:56.813Z,3.07
2019-02-05T20:55:29.614Z,3.02
2019-02-05T20:58:00.062Z,2.99
2019-02-05T21:00:30.642Z,2.98
2019-02-05T21:03:01.228Z,3.03
2019-02-05T21:05:31.768Z,3.00
2019-02-05T21:08:02.829Z,3.00
2019-02-05T21:10:34.328Z,3.00
2019-02-05T21:13:05.244Z,2.98
2019-02-05T21:15:36.082Z,3.00
2019-02-05T21:18:07.207Z,3.00
2019-02-05T21:20:37.689Z,2.99
2019-02-05T21:23:08.307Z,3.04
2019-02-05T21:25:38.886Z,3.05
2019-02-05T21:28:09.454Z,3.06
2019-02-05T21:30:39.944Z,3.04
2019-02-05T21:33:10.472Z,3.02
2019-02-05T21:35:41.198Z,2.99
2019-02-05T21:38:11.888Z,2.98
2019-02-05T21:40:42.341Z,2.98
2019-02-05T21:43:12.826Z,2.99
2019-02-05T21:45:43.777Z,2.97
2019-02-05T21:48:14.427Z,2.98
2019-02-05T21:50:45.650Z,2.98
2019-02-05T21:53:16.448Z,3.02
2019-02-05T21:55:47.233Z,3.02
2019-02-05T21:58:17.687Z,3.08
2019-02-05T22:00:48.171Z,3.05
2019-02-05T22:03:18.723Z,3.02
2019-02-05T22:05:49.269Z,3.04
2019-02-05T22:08:19.797Z,3.07
2019-02-05T22:10:50.278Z,3.18
2019-02-05T22:13:22.416Z,3.13
2019-02-05T22:15:52.870Z,3.17
2019-02-05T22:18:23.374Z,3.09
2019-02-05T22:20:54.191Z,3.05
2019-02-05T22:23:25.021Z,3.03
2019-02-05T22:25:55.604Z,3.03
2019-02-05T22:28:26.014Z,3.05
2019-02-05T22:30:56.893Z,3.07
2019-02-05T22:33:28.211Z,3.02
2019-02-05T22:35:59.086Z,3.07
2019-02-05T22:38:29.537Z,3.06
2019-02-05T22:40:59.994Z,3.04
2019-02-05T22:43:30.474Z,3.01
2019-02-05T22:46:01.199Z,3.01
2019-02-05T22:48:32.434Z,3.05
2019-02-05T22:51:02.969Z,3.06
2019-02-05T22:53:33.519Z,3.00
2019-02-05T22:56:04.101Z,2.97
2019-02-05T22:58:34.549Z,3.06
2019-02-05T23:01:23.358Z,3.03
2019-02-05T23:04:05.875Z,3.02
2019-02-05T23:07:10.179Z,2.99
2019-02-05T23:09:46.083Z,3.02
2019-02-05T23:12:32.679Z,3.00
2019-02-05T23:15:24.248Z,2.96
2019-02-05T23:17:54.852Z,2.98
2019-02-05T23:20:25.821Z,3.04
2019-02-05T23:22:57.197Z,2.98
2019-02-05T23:25:27.836Z,2.95
2019-02-05T23:27:58.386Z,2.89
2019-02-05T23:30:30.638Z,2.94
2019-02-05T23:33:01.130Z,2.86
2019-02-05T23:35:33.323Z,2.88
2019-02-05T23:38:04.172Z,2.88
2019-02-05T23:40:34.792Z,2.92
2019-02-05T23:43:05.800Z,2.91
2019-02-05T23:45:36.673Z,2.83
2019-02-05T23:48:08.031Z,2.80
2019-02-05T23:50:38.474Z,2.79
2019-02-05T23:53:09.291Z,2.76
2019-02-05T23:55:39.766Z,2.70
2019-02-05T23:58:10.682Z,2.70
